Flight Track Log - Related Links

Times and Time Zones

All times are in EDT time to prevent confusion due to time zone crossing. See the SWA407 flight status page for this flight to view local times or setup timezone preferences in your user account.


Time Position Orientation Groundspeed Altitude Reporting Facility
EDT Latitude Longitude Course Direction KTS MPH feet Rate Location/Type
Wed 03:44:36 PM 27.9667 -82.5500 196° South 173 199 800  Level Tampa TRACON
Wed 03:45:37 PM 27.9167 -82.5667 196° South 219 252 2,500 2,480 Climbing Tampa TRACON
Wed 03:47:52 PM 27.9911 -82.6342 321° Northwest 271 312 8,900 2,677 Climbing Jacksonville Center
Wed 03:48:52 PM 28.0786 -82.6267 North 290 334 11,200 2,050 Climbing Jacksonville Center
Wed 03:49:52 PM 28.1811 -82.6453 351° North 330 380 13,000 900 Climbing Jacksonville Center
Wed 03:50:52 PM 28.2833 -82.6806 343° North 361 415 13,000 800 Level Jacksonville Center
Wed 03:51:52 PM 28.3836 -82.7133 344° North 371 427 14,600 2,050 Climbing Jacksonville Center
Wed 03:52:52 PM 28.4878 -82.7156 359° North 371 427 17,100 2,400 Climbing Jacksonville Center
Wed 03:53:52 PM 28.5983 -82.7106 North 378 435 19,400 1,650 Climbing Jacksonville Center
Wed 03:54:52 PM 28.7028 -82.7056 North 402 463 20,400 950 Climbing Jacksonville Center
Wed 03:55:52 PM 28.8197 -82.7053 360° North 409 471 21,300 1,000 Climbing Jacksonville Center
Wed 03:56:52 PM 28.9367 -82.7028 North 414 476 22,400 1,050 Climbing Jacksonville Center
Wed 03:57:52 PM 29.0575 -82.7003 North 419 482 23,400 1,000 Climbing Jacksonville Center
Wed 03:58:52 PM 29.1767 -82.6975 North 424 488 24,400 1,000 Climbing Jacksonville Center
Wed 03:59:52 PM 29.2978 -82.6950 North 424 488 25,400 1,000 Climbing Jacksonville Center
Wed 04:00:52 PM 29.4186 -82.6922 North 424 488 26,400 1,250 Climbing Jacksonville Center
Wed 04:01:52 PM 29.5481 -82.6944 359° North 439 505 27,900 1,450 Climbing Jacksonville Center
Wed 04:02:52 PM 29.6733 -82.6917 North 439 505 29,300 1,500 Climbing Jacksonville Center
Wed 04:03:52 PM 29.8028 -82.6939 359° North 444 511 30,900 1,450 Climbing Jacksonville Center
Wed 04:04:52 PM 29.9261 -82.6911 North 444 511 32,200 1,450 Climbing Jacksonville Center
Wed 04:05:52 PM 30.0681 -82.6886 North 449 517 33,800 1,400 Climbing Jacksonville Center
Wed 04:06:52 PM 30.1933 -82.6858 North 449 517 35,000 600 Climbing Jacksonville Center
Wed 04:07:52 PM 30.3164 -82.6856 360° North 449 517 35,000  Level Jacksonville Center
Wed 04:08:52 PM 30.4375 -82.6853 360° North 438 504 35,000  Level Jacksonville Center
Wed 04:09:52 PM 30.5356 -82.6803 North 438 504 35,000  Level Jacksonville Center
Wed 04:10:52 PM 30.6714 -82.6608 North 438 504 35,000  Level Jacksonville Center
Wed 04:11:52 PM 30.7925 -82.6386 North 444 511 35,000  Level Jacksonville Center
Wed 04:12:52 PM 30.9156 -82.6167 North 444 511 35,000  Level Jacksonville Center
Wed 04:13:52 PM 31.0386 -82.5967 North 444 511 35,000  Level Jacksonville Center
Wed 04:14:52 PM 31.1597 -82.5744 North 449 517 35,000  Level Jacksonville Center
Wed 04:15:52 PM 31.2828 -82.5522 North 444 511 35,000  Level Jacksonville Center
Wed 04:16:52 PM 31.4061 -82.5300 North 444 511 35,000  Level Jacksonville Center
Wed 04:17:52 PM 31.5269 -82.5100 North 444 511 35,000  Level Jacksonville Center
Wed 04:18:52 PM 31.6503 -82.4900 North 444 511 35,000  Level Jacksonville Center
Wed 04:21:15 PM 31.9450 -82.4456 North 452 520 35,000  Level Atlanta Center
Wed 04:22:15 PM 32.0678 -82.4261 North 453 521 35,000  Level Atlanta Center
Wed 04:23:15 PM 32.1908 -82.4044 North 448 516 35,000  Level Atlanta Center
Wed 04:24:15 PM 32.3075 -82.3875 North 437 503 35,000  Level Atlanta Center
Wed 04:25:15 PM 32.4428 -82.3628 North 438 504 35,000  Level Atlanta Center
Wed 04:26:15 PM 32.5656 -82.3456 North 438 504 35,000  Level Atlanta Center
Wed 04:27:15 PM 32.6864 -82.3286 North 445 512 35,000  Level Atlanta Center
Wed 04:28:15 PM 32.8114 -82.3064 North 445 512 35,000  Level Atlanta Center
Wed 04:29:15 PM 32.9322 -82.2867 North 445 512 35,000  Level Atlanta Center
Wed 04:30:15 PM 33.0550 -82.2667 North 445 512 35,000  Level Atlanta Center
Wed 04:31:15 PM 33.1781 -82.2469 North 445 512 35,000 500 Level Atlanta Center
Wed 04:32:15 PM 33.3008 -82.2294 North 445 512 36,000 1,000 Climbing Atlanta Center
Wed 04:33:15 PM 33.4217 -82.2069 North 445 512 37,000 500 Climbing Atlanta Center
Wed 04:34:15 PM 33.5444 -82.1869 North 445 512 37,000  Level Atlanta Center
Wed 04:35:15 PM 33.6694 -82.1642 North 445 512 37,000  Level Atlanta Center
Wed 04:36:15 PM 33.7817 -82.1467 North 450 518 37,000  Level Atlanta Center
Wed 04:37:15 PM 33.9067 -82.1264 North 450 518 37,000  Level Atlanta Center
Wed 04:38:15 PM 34.0294 -82.1064 North 445 512 37,000  Level Atlanta Center
Wed 04:39:15 PM 34.1544 -82.0858 North 445 512 37,000  Level Atlanta Center
Wed 04:40:15 PM 34.2772 -82.0603 10° North 445 512 37,000  Level Atlanta Center
Wed 04:41:15 PM 34.3978 -82.0425 North 445 512 37,000  Level Atlanta Center
Wed 04:42:15 PM 34.5228 -82.0194 North 445 512 37,000  Level Atlanta Center
Wed 04:43:15 PM 34.6433 -81.9986 North 445 512 37,000  Level Atlanta Center
Wed 04:44:15 PM 34.7661 -81.9756 North 440 506 37,000  Level Atlanta Center
Wed 04:45:15 PM 34.8889 -81.9547 North 445 512 37,000  Level Atlanta Center
Wed 04:46:15 PM 35.0222 -81.9336 North 445 512 37,000  Level Atlanta Center
Wed 04:47:15 PM 35.1325 -81.9283 North 445 512 37,000  Level Atlanta Center
Wed 04:48:15 PM 35.2578 -81.9200 North 439 505 37,000  Level Atlanta Center
Wed 04:49:15 PM 35.3808 -81.9169 North 439 505 37,000  Level Atlanta Center
Wed 04:50:15 PM 35.5058 -81.9111 North 444 511 37,000  Level Atlanta Center
Wed 04:51:15 PM 35.6433 -81.9025 North 444 511 37,000  Level Atlanta Center
Wed 04:52:15 PM 35.7683 -81.8967 North 438 504 37,000  Level Atlanta Center
Wed 04:53:15 PM 35.8933 -81.8906 North 443 510 37,000  Level Atlanta Center
Wed 04:54:15 PM 36.0228 -81.8847 North 448 516 37,000  Level Atlanta Center
Wed 04:55:15 PM 36.1436 -81.8789 North 448 516 37,000  Level Atlanta Center
Wed 04:56:15 PM 36.2706 -81.8731 North 448 516 37,000  Level Atlanta Center
Wed 04:57:15 PM 36.3936 -81.8644 North 443 510 37,000  Level Atlanta Center
Wed 04:58:15 PM 36.5042 -81.8614 North 443 510 37,000  Level Atlanta Center
Wed 04:59:15 PM 36.6289 -81.8528 North 442 509 37,000  Level Atlanta Center
Wed 05:00:15 PM 36.7539 -81.8469 North 442 509 37,000  Level Atlanta Center
Wed 05:01:28 PM 36.9011 -81.8400 North 447 514 37,000  Level Indianapolis Center
Wed 05:02:30 PM 37.0478 -81.8328 North 451 519 37,000  Level Indianapolis Center
Wed 05:03:32 PM 37.1719 -81.8272 North 448 516 37,000  Level Indianapolis Center
Wed 05:04:33 PM 37.2972 -81.8222 North 449 517 37,000  Level Indianapolis Center
Wed 05:05:35 PM 37.4219 -81.8164 North 448 516 37,000  Level Indianapolis Center
Wed 05:06:37 PM 37.5456 -81.8103 North 446 513 37,000  Level Indianapolis Center
Wed 05:07:39 PM 37.6931 -81.8028 North 452 520 37,000  Level Indianapolis Center
Wed 05:08:41 PM 37.8186 -81.7969 North 450 518 37,000  Level Indianapolis Center
Wed 05:09:43 PM 37.9314 -81.7911 North 452 520 37,000  Level Indianapolis Center
Wed 05:10:45 PM 38.0569 -81.7847 North 451 519 37,000  Level Indianapolis Center
Wed 05:11:47 PM 38.2086 -81.7772 North 452 520 37,000  Level Indianapolis Center
Wed 05:12:49 PM 38.3333 -81.7686 North 448 516 37,000  Level Indianapolis Center
Wed 05:13:50 PM 38.4450 -81.6889 29° Northeast 458 527 37,000  Level Indianapolis Center
Wed 05:14:52 PM 38.5506 -81.5975 34° Northeast 462 532 37,000  Level Indianapolis Center
Wed 05:15:54 PM 38.6647 -81.4992 34° Northeast 460 529 37,000  Level Indianapolis Center
Wed 05:16:56 PM 38.7703 -81.4075 34° Northeast 459 528 37,000  Level Indianapolis Center
Wed 05:17:58 PM 38.8828 -81.3086 34° Northeast 467 537 37,000  Level Indianapolis Center
Wed 05:19:00 PM 38.9856 -81.2197 34° Northeast 450 518 37,000  Level Indianapolis Center
Wed 05:20:02 PM 39.0892 -81.1294 34° Northeast 451 519 37,000  Level Indianapolis Center
Wed 05:21:04 PM 39.1922 -81.0367 35° Northeast 451 519 37,000  Level Indianapolis Center
Wed 05:22:06 PM 39.2950 -80.9464 34° Northeast 448 516 37,000  Level Indianapolis Center
Wed 05:23:07 PM 39.4169 -80.8389 34° Northeast 443 510 37,000 -415 Level Indianapolis Center
Wed 05:24:45 PM 39.6106 -80.7689 16° North 433 498 35,900 -759 Descending Cleveland Center
Wed 05:25:45 PM 39.7294 -80.7314 14° North 433 498 35,000 -650 Descending Cleveland Center
Wed 05:26:45 PM 39.8503 -80.6939 13° North 433 498 34,600 -550 Descending Cleveland Center
Wed 05:27:45 PM 39.9733 -80.6536 14° North 445 512 33,900 -850 Descending Cleveland Center
Wed 05:28:45 PM 40.0942 -80.6131 14° North 445 512 32,900 -850 Descending Cleveland Center
Wed 05:29:45 PM 40.2047 -80.5750 15° North 445 512 32,200 -850 Descending Cleveland Center
Wed 05:30:45 PM 40.3214 -80.5122 22° Northeast 456 525 31,200 -600 Descending Cleveland Center
Wed 05:31:45 PM 40.4381 -80.4467 23° Northeast 456 525 31,000 -100 Descending Cleveland Center
Wed 05:32:45 PM 40.5528 -80.3836 23° Northeast 450 518 31,000  Level Cleveland Center
Wed 05:33:45 PM 40.6672 -80.3231 22° Northeast 445 512 31,000  Level Cleveland Center
Wed 05:34:45 PM 40.7797 -80.2594 23° Northeast 445 512 31,000 -450 Level Cleveland Center
Wed 05:35:45 PM 40.8983 -80.1903 24° Northeast 440 506 30,100 -950 Descending Cleveland Center
Wed 05:36:45 PM 41.0106 -80.1264 23° Northeast 440 506 29,100 -1,000 Descending Cleveland Center
Wed 05:37:45 PM 41.1208 -80.0622 24° Northeast 434 499 28,100 -1,050 Descending Cleveland Center
Wed 05:38:45 PM 41.2331 -80.0006 22° Northeast 434 499 27,000 -1,000 Descending Cleveland Center
Wed 05:39:45 PM 41.3411 -79.9497 19° North 427 491 26,100 -950 Descending Cleveland Center
Wed 05:40:45 PM 41.4494 -79.9128 14° North 416 479 25,100 -1,000 Descending Cleveland Center
Wed 05:41:45 PM 41.5597 -79.8783 13° North 405 466 24,100 -700 Descending Cleveland Center
Wed 05:42:45 PM 41.6825 -79.8408 13° North 405 466 23,700 -750 Descending Cleveland Center
Wed 05:43:45 PM 41.7906 -79.7811 22° Northeast 405 466 22,600 -850 Descending Cleveland Center
Wed 05:44:45 PM 41.8775 -79.7131 30° Northeast 405 466 22,000 -300 Descending Cleveland Center
Wed 05:45:45 PM 41.9811 -79.6419 27° Northeast 405 466 22,000  Level Cleveland Center
Wed 05:46:45 PM 42.0847 -79.5703 27° Northeast 405 466 22,000  Level Cleveland Center
Wed 05:47:45 PM 42.1883 -79.4903 30° Northeast 410 472 22,000 -400 Level Cleveland Center
Wed 05:48:45 PM 42.2939 -79.4183 27° Northeast 415 478 21,200 -1,900 Descending Cleveland Center
Wed 05:49:45 PM 42.3994 -79.3433 28° Northeast 415 478 18,200 -2,900 Descending Cleveland Center
Wed 05:50:45 PM 42.5028 -79.2653 29° Northeast 415 478 15,400 -1,850 Descending Cleveland Center
Wed 05:51:45 PM 42.5936 -79.1900 31° Northeast 402 463 14,500 -850 Descending Cleveland Center
Wed 05:52:45 PM 42.6747 -79.1853 North 327 376 13,700 -1,150 Descending Cleveland Center
Wed 05:53:45 PM 42.7414 -79.1811 North 269 310 12,200 -1,500 Descending Cleveland Center
Wed 05:54:45 PM 42.7997 -79.1683 North 240 276 10,700 -1,450 Descending Cleveland Center
Wed 05:55:45 PM 42.7881 -79.0725 99° East 148 170 9,300 -1,500 Descending Cleveland Center
Wed 05:56:45 PM 42.7600 -79.0025 119° Southeast 166 191 7,700 -1,650 Descending Cleveland Center
Wed 05:57:45 PM 42.7300 -78.9381 122° Southeast 180 207 6,000 1,650 Descending Cleveland Center
Wed 05:58:45 PM 42.7164 -78.8764 107° East 186 214 11,000 5,000 Climbing Cleveland Center

Login

Don't have an account? Register now (free) for customized features, flight alerts, and more!